Time;durP1;ratioP1;P1;durP2;ratioP2;P2;SDS_P1;SDS_P2;PMS_P1;PMS_P2;Temp;Humidity;BMP_temperature;BMP_pressure;BME280_temperature;BME280_humidity;BME280_pressure;Samples;Min_cycle;Max_cycle;Signal;HPM_P1;HPM_P2
2023/06/09 00:02:06;;;;;;;3.97;3.53;;;;;;;19.50;54.55;100287.84;5131261;27;20207;-64
2023/06/09 00:04:35;;;;;;;4.88;3.33;;;;;;;19.48;54.88;100281.84;5133613;27;20336;-64
2023/06/09 00:07:04;;;;;;;5.03;3.10;;;;;;;19.49;54.92;100289.63;5123946;27;20190;-62
2023/06/09 00:09:32;;;;;;;4.53;2.95;;;;;;;19.48;54.80;100287.09;5131751;27;20199;-63
2023/06/09 00:12:00;;;;;;;5.72;3.75;;;;;;;19.47;55.48;100285.38;5128818;27;20222;-64
2023/06/09 00:14:30;;;;;;;5.10;3.63;;;;;;;19.43;55.31;100281.19;5132547;27;20669;-65
2023/06/09 00:16:59;;;;;;;5.40;3.53;;;;;;;19.41;55.31;100285.66;5131550;27;20256;-64
2023/06/09 00:19:29;;;;;;;5.07;3.60;;;;;;;19.39;55.60;100283.09;5132162;27;20251;-63
2023/06/09 00:21:57;;;;;;;4.93;3.35;;;;;;;19.40;55.72;100286.56;5128943;27;20563;-64
2023/06/09 00:24:25;;;;;;;6.57;3.67;;;;;;;19.38;55.80;100280.56;5128413;27;20230;-63
2023/06/09 00:26:53;;;;;;;3.88;3.45;;;;;;;19.38;55.86;100285.78;5131716;27;20210;-63
2023/06/09 00:29:22;;;;;;;4.57;3.55;;;;;;;19.39;55.66;100283.09;5130232;27;20911;-63
2023/06/09 00:31:52;;;;;;;5.88;3.97;;;;;;;19.40;55.69;100283.94;5133414;27;20578;-64
2023/06/09 00:34:20;;;;;;;5.65;4.22;;;;;;;19.40;55.88;100281.31;5131738;27;20562;-63
2023/06/09 00:36:48;;;;;;;6.38;3.78;;;;;;;19.37;55.85;100284.06;5125010;27;20207;-63
2023/06/09 00:39:16;;;;;;;5.00;3.70;;;;;;;19.34;55.84;100273.78;5131773;27;20642;-63
2023/06/09 00:41:44;;;;;;;5.50;3.63;;;;;;;19.29;56.19;100280.06;5130281;27;20562;-63
2023/06/09 00:44:12;;;;;;;6.72;3.90;;;;;;;19.25;56.39;100280.22;5131433;27;20197;-63
2023/06/09 00:46:42;;;;;;;4.88;3.65;;;;;;;19.21;56.49;100279.50;5130396;27;20242;-63
2023/06/09 00:49:12;;;;;;;4.20;3.85;;;;;;;19.21;56.72;100278.66;5131524;27;20649;-64
2023/06/09 00:51:40;;;;;;;6.38;3.88;;;;;;;19.23;56.69;100285.53;5130838;27;20221;-63
2023/06/09 00:54:08;;;;;;;6.50;3.67;;;;;;;19.27;56.01;100284.47;5125945;27;20215;-64
2023/06/09 00:56:38;;;;;;;6.03;4.15;;;;;;;19.30;56.26;100284.34;5126444;27;20246;-64
2023/06/09 00:59:09;;;;;;;4.03;3.60;;;;;;;19.34;56.34;100281.63;5131744;28;20245;-64
2023/06/09 01:01:37;;;;;;;8.32;4.20;;;;;;;19.38;56.38;100278.78;5128699;27;20215;-63
2023/06/09 01:04:05;;;;;;;5.72;3.63;;;;;;;19.40;56.36;100278.72;5131535;27;20234;-63
2023/06/09 01:06:42;;;;;;;3.60;3.10;;;;;;;19.42;56.32;100277.75;5131360;27;20207;-63
2023/06/09 01:09:18;;;;;;;5.18;3.90;;;;;;;19.42;56.16;100282.13;5133564;27;20195;-63
2023/06/09 01:11:59;;;;;;;4.93;3.50;;;;;;;19.40;56.09;100279.56;5126953;27;20195;-64
2023/06/09 01:14:33;;;;;;;5.15;3.38;;;;;;;19.36;56.31;100280.59;5129970;27;20200;-66
2023/06/09 01:17:07;;;;;;;4.32;3.92;;;;;;;19.33;56.34;100278.16;5130620;27;20571;-65
2023/06/09 01:19:40;;;;;;;8.00;3.95;;;;;;;19.33;56.45;100278.16;5131563;28;20309;-64
2023/06/09 01:22:21;;;;;;;5.18;3.50;;;;;;;19.32;56.24;100276.44;5129893;27;20207;-63
2023/06/09 01:24:58;;;;;;;5.45;3.55;;;;;;;19.29;56.58;100272.22;5128633;27;20246;-66
2023/06/09 01:27:30;;;;;;;4.00;3.70;;;;;;;19.33;56.20;100274.66;5131279;27;20646;-65
2023/06/09 01:29:59;;;;;;;6.05;3.42;;;;;;;19.35;56.46;100267.63;5128025;27;20649;-66
2023/06/09 01:32:28;;;;;;;4.78;3.83;;;;;;;19.35;56.59;100268.47;5129056;27;20673;-66
2023/06/09 01:34:56;;;;;;;4.03;3.60;;;;;;;19.34;56.60;100272.00;5130588;27;20199;-66
2023/06/09 01:37:26;;;;;;;4.10;3.70;;;;;;;19.36;56.70;100277.16;5131151;28;20276;-66
2023/06/09 01:39:54;;;;;;;6.18;3.92;;;;;;;19.34;56.77;100266.78;5130912;27;20693;-66
2023/06/09 01:42:22;;;;;;;4.22;3.42;;;;;;;19.37;56.89;100268.38;5134521;27;20680;-64
2023/06/09 01:44:51;;;;;;;4.18;3.83;;;;;;;19.38;56.88;100270.94;5131524;28;20222;-65
2023/06/09 01:47:20;;;;;;;5.07;3.42;;;;;;;19.41;56.73;100267.38;5129929;27;20199;-66
2023/06/09 01:49:55;;;;;;;4.80;3.60;;;;;;;19.40;56.93;100268.25;5130813;27;20199;-66
2023/06/09 01:52:31;;;;;;;6.65;4.18;;;;;;;19.35;56.68;100265.00;5129207;27;20207;-64
2023/06/09 01:55:03;;;;;;;5.32;3.88;;;;;;;19.30;56.79;100267.84;5130577;27;20205;-63
2023/06/09 01:57:35;;;;;;;4.90;3.70;;;;;;;19.24;56.81;100268.94;5127985;27;20199;-65
2023/06/09 02:00:07;;;;;;;4.53;4.05;;;;;;;19.20;57.12;100272.59;5130794;27;20207;-63
2023/06/09 02:02:38;;;;;;;4.78;4.30;;;;;;;19.16;57.12;100265.81;5130387;27;20256;-66
2023/06/09 02:05:07;;;;;;;5.13;4.20;;;;;;;19.13;57.33;100265.94;5133122;27;20636;-63
2023/06/09 02:07:36;;;;;;;4.97;4.20;;;;;;;19.09;57.47;100264.38;5134303;27;20230;-63
2023/06/09 02:10:05;;;;;;;6.57;3.95;;;;;;;19.05;57.56;100263.66;5133241;27;20671;-63
2023/06/09 02:12:33;;;;;;;5.20;4.03;;;;;;;19.02;57.70;100273.41;5133470;27;20206;-62
2023/06/09 02:15:02;;;;;;;6.18;3.70;;;;;;;18.94;57.88;100275.50;5139766;27;20233;-63
2023/06/09 02:17:33;;;;;;;6.50;4.38;;;;;;;18.94;57.87;100280.72;5133428;27;20611;-65
2023/06/09 02:20:03;;;;;;;5.38;4.15;;;;;;;18.91;58.07;100281.69;5133909;27;20222;-64
2023/06/09 02:22:31;;;;;;;5.72;4.35;;;;;;;18.90;58.21;100282.59;5130111;27;20618;-64
2023/06/09 02:24:59;;;;;;;6.38;4.65;;;;;;;18.89;58.49;100282.66;5128039;27;20253;-65
2023/06/09 02:27:28;;;;;;;6.03;4.40;;;;;;;18.85;58.83;100274.09;5134667;27;20203;-66
2023/06/09 02:29:56;;;;;;;6.72;4.47;;;;;;;18.85;58.99;100278.47;5129298;27;20628;-69
2023/06/09 02:32:23;;;;;;;5.43;4.82;;;;;;;18.77;59.31;100282.25;5139201;27;20322;-66
2023/06/09 02:34:53;;;;;;;12.07;5.32;;;;;;;18.70;59.61;100282.53;5133838;27;20195;-65
2023/06/09 02:37:21;;;;;;;7.47;5.10;;;;;;;18.62;59.84;100277.63;5131431;27;20240;-65
2023/06/09 02:39:49;;;;;;;5.63;5.13;;;;;;;18.51;60.32;100278.06;5131781;27;20222;-67
2023/06/09 02:42:20;;;;;;;6.07;4.88;;;;;;;18.46;60.52;100280.03;5133045;27;20294;-68
2023/06/09 02:44:49;;;;;;;6.68;5.07;;;;;;;18.41;60.65;100287.22;5133382;27;20230;-66
2023/06/09 02:47:17;;;;;;;7.78;5.75;;;;;;;18.37;61.00;100296.03;5128996;27;20195;-66
2023/06/09 02:49:44;;;;;;;10.65;5.70;;;;;;;18.28;60.78;100286.81;5135841;27;20559;-67
2023/06/09 02:52:14;;;;;;;8.15;6.40;;;;;;;18.20;61.02;100283.69;5133385;27;20210;-66
2023/06/09 02:54:43;;;;;;;7.15;6.18;;;;;;;18.15;61.14;100287.34;5132654;27;20215;-65
2023/06/09 02:57:12;;;;;;;6.40;5.72;;;;;;;18.12;61.34;100285.75;5133174;27;20210;-66
2023/06/09 02:59:40;;;;;;;7.70;5.82;;;;;;;18.07;61.51;100287.66;5133411;27;20215;-65
2023/06/09 03:02:08;;;;;;;7.32;5.88;;;;;;;18.03;61.42;100296.50;5133942;27;20209;-65
2023/06/09 03:04:37;;;;;;;6.45;5.60;;;;;;;17.99;61.58;100293.16;5131272;27;20285;-67
2023/06/09 03:07:09;;;;;;;7.43;5.78;;;;;;;17.98;61.49;100301.91;5132705;27;20204;-66
2023/06/09 03:09:38;;;;;;;9.07;5.70;;;;;;;17.93;61.74;100295.16;5133758;27;20565;-66
2023/06/09 03:12:07;;;;;;;6.72;5.65;;;;;;;17.92;61.63;100293.47;5132872;27;20231;-68
2023/06/09 03:14:35;;;;;;;7.43;5.88;;;;;;;17.89;61.66;100297.03;5133219;27;20195;-66
2023/06/09 03:17:04;;;;;;;7.03;6.32;;;;;;;17.91;61.72;100304.81;5131207;27;20211;-66
2023/06/09 03:19:32;;;;;;;9.07;8.07;;;;;;;17.92;61.67;100299.53;5126792;27;20707;-67
2023/06/09 03:22:03;;;;;;;6.75;6.05;;;;;;;17.93;61.63;100306.47;5127720;27;20568;-67
2023/06/09 03:24:33;;;;;;;9.85;5.95;;;;;;;17.88;61.78;100297.94;5133163;27;20242;-65
2023/06/09 03:27:03;;;;;;;8.30;7.32;;;;;;;17.80;62.05;100306.06;5129502;27;20700;-65
2023/06/09 03:29:30;;;;;;;7.75;6.00;;;;;;;17.79;62.30;100309.56;5132523;27;20200;-66
2023/06/09 03:31:59;;;;;;;6.93;6.32;;;;;;;17.77;62.55;100313.97;5133164;27;20188;-66
2023/06/09 03:34:27;;;;;;;8.18;6.75;;;;;;;17.79;62.38;100309.56;5133152;27;20222;-65
2023/06/09 03:36:55;;;;;;;7.85;6.40;;;;;;;17.82;62.28;100319.91;5130141;27;20206;-65
2023/06/09 03:39:23;;;;;;;7.00;6.30;;;;;;;17.81;62.17;100307.75;5129696;27;20575;-66
2023/06/09 03:41:54;;;;;;;6.82;6.20;;;;;;;17.87;62.36;100319.72;5133424;27;20253;-65
2023/06/09 03:44:23;;;;;;;7.88;5.45;;;;;;;17.89;62.21;100315.28;5133208;27;20215;-64
2023/06/09 03:46:51;;;;;;;6.97;6.18;;;;;;;17.92;62.08;100319.53;5132003;27;20204;-65
2023/06/09 03:49:19;;;;;;;7.95;6.47;;;;;;;17.94;62.04;100317.75;5131722;27;20191;-64
2023/06/09 03:51:47;;;;;;;9.43;6.22;;;;;;;17.94;62.21;100317.75;5126392;27;20329;-64
2023/06/09 03:54:15;;;;;;;6.93;6.25;;;;;;;17.94;62.24;100317.75;5133260;27;20214;-63
2023/06/09 03:56:43;;;;;;;7.68;6.03;;;;;;;17.95;62.21;100320.28;5132790;27;20668;-62
2023/06/09 03:59:11;;;;;;;9.40;6.60;;;;;;;18.01;61.98;100324.41;5133021;27;20233;-65
2023/06/09 04:01:42;;;;;;;7.75;6.45;;;;;;;18.07;61.95;100313.75;5135480;27;20669;-64
2023/06/09 04:04:11;;;;;;;8.95;6.18;;;;;;;18.14;61.79;100320.41;5132412;27;20207;-64
2023/06/09 04:06:45;;;;;;;7.88;5.78;;;;;;;18.18;61.58;100327.22;5134204;27;20203;-63
2023/06/09 04:09:16;;;;;;;7.50;6.60;;;;;;;18.23;61.69;100335.72;5128670;27;20298;-63
2023/06/09 04:11:44;;;;;;;9.15;6.75;;;;;;;18.31;61.53;100333.66;5131054;27;20227;-62
2023/06/09 04:14:12;;;;;;;6.85;6.13;;;;;;;18.42;61.35;100332.41;5132378;27;20633;-64
2023/06/09 04:16:42;;;;;;;9.05;6.45;;;;;;;18.52;60.98;100326.78;5131724;27;20207;-63
2023/06/09 04:19:10;;;;;;;9.93;6.35;;;;;;;18.66;60.51;100328.81;5131910;27;20191;-66
2023/06/09 04:21:38;;;;;;;7.10;6.35;;;;;;;18.85;60.01;100333.31;5128978;27;20221;-64
2023/06/09 04:24:08;;;;;;;7.07;6.25;;;;;;;19.04;59.55;100329.03;5130970;27;20207;-69
2023/06/09 04:26:37;;;;;;;8.57;6.40;;;;;;;19.21;58.76;100326.53;5126840;27;20195;-64
2023/06/09 04:29:09;;;;;;;9.45;6.70;;;;;;;19.40;58.39;100330.97;5131060;27;20191;-67
2023/06/09 04:31:42;;;;;;;14.55;9.82;;;;;;;19.58;57.54;100326.72;5129430;27;20199;-67
2023/06/09 04:34:13;;;;;;;7.85;6.15;;;;;;;19.75;57.08;100329.47;5132534;27;20222;-66
2023/06/09 04:36:41;;;;;;;7.68;6.70;;;;;;;19.85;56.65;100332.53;5128622;27;20211;-66
2023/06/09 04:39:11;;;;;;;8.48;6.50;;;;;;;19.98;56.40;100331.03;5131779;27;20229;-66
2023/06/09 04:41:44;;;;;;;7.82;6.28;;;;;;;20.10;55.78;100327.84;5130652;27;20203;-67
2023/06/09 04:44:13;;;;;;;7.93;5.82;;;;;;;20.24;55.55;100330.66;5131100;27;20207;-67
2023/06/09 04:46:41;;;;;;;7.93;7.15;;;;;;;20.43;55.30;100324.56;5132399;27;20539;-67
2023/06/09 04:49:09;;;;;;;7.22;6.32;;;;;;;20.65;54.66;100320.00;5129806;27;20204;-67
2023/06/09 04:51:46;;;;;;;6.85;6.15;;;;;;;20.89;54.07;100325.81;5130220;27;20643;-65
2023/06/09 04:54:14;;;;;;;8.48;6.65;;;;;;;21.07;53.57;100310.94;5125758;27;20230;-66
2023/06/09 04:56:44;;;;;;;7.60;6.07;;;;;;;21.20;53.11;100317.25;5131050;27;20287;-66
2023/06/09 04:59:12;;;;;;;8.85;5.72;;;;;;;21.36;52.77;100316.50;5129091;27;20574;-67
2023/06/09 05:01:40;;;;;;;10.45;5.97;;;;;;;21.51;52.18;100315.72;5135138;27;20225;-66
2023/06/09 05:04:08;;;;;;;8.77;6.13;;;;;;;21.65;51.73;100322.81;5132285;28;20229;-66
2023/06/09 05:06:37;;;;;;;7.60;5.80;;;;;;;21.78;51.33;100323.03;5128296;27;20198;-66
2023/06/09 05:09:07;;;;;;;7.75;5.20;;;;;;;21.83;50.17;100315.75;5131431;27;20203;-67
2023/06/09 05:11:35;;;;;;;7.63;5.53;;;;;;;21.95;50.27;100312.47;5132328;27;20198;-64
2023/06/09 05:14:04;;;;;;;9.88;5.82;;;;;;;22.15;49.99;100309.63;5129935;27;20203;-64
2023/06/09 05:16:35;;;;;;;8.63;5.80;;;;;;;22.55;49.21;100315.25;5126912;27;20219;-64
2023/06/09 05:19:03;;;;;;;7.90;5.97;;;;;;;23.09;48.09;100315.66;5116713;27;20565;-64
2023/06/09 05:21:31;;;;;;;8.15;4.65;;;;;;;24.00;45.93;100308.34;5129865;27;20628;-64
2023/06/09 05:23:59;;;;;;;7.90;5.15;;;;;;;25.33;43.33;100306.66;5134790;27;20207;-63
2023/06/09 05:26:29;;;;;;;8.48;5.10;;;;;;;26.88;39.58;100303.47;5125589;27;20283;-64
2023/06/09 05:28:58;;;;;;;9.50;4.95;;;;;;;28.31;36.09;100303.75;5130039;28;20260;-64
2023/06/09 05:31:26;;;;;;;6.32;4.50;;;;;;;29.69;33.62;100306.28;5128422;27;20202;-64
2023/06/09 05:33:54;;;;;;;7.28;4.80;;;;;;;30.94;30.84;100306.63;5131463;28;20287;-64
2023/06/09 05:36:22;;;;;;;5.22;4.65;;;;;;;31.82;29.57;100304.53;5130696;27;20199;-62
2023/06/09 05:38:50;;;;;;;7.97;4.40;;;;;;;32.57;28.42;100303.34;5132809;27;20199;-65
2023/06/09 05:41:18;;;;;;;7.22;4.35;;;;;;;33.39;27.13;100295.91;5133651;27;20199;-64
2023/06/09 05:43:48;;;;;;;5.57;4.22;;;;;;;34.13;26.22;100292.59;5134794;27;20295;-64
2023/06/09 05:46:16;;;;;;;5.90;4.70;;;;;;;34.98;24.53;100294.09;5129915;27;20203;-64
2023/06/09 05:48:44;;;;;;;7.78;3.85;;;;;;;35.71;24.02;100285.88;5125135;27;20199;-62
2023/06/09 05:51:12;;;;;;;5.97;4.43;;;;;;;36.55;23.25;100290.59;5126891;27;20207;-62
2023/06/09 05:53:41;;;;;;;6.07;4.05;;;;;;;37.40;21.76;100293.78;5126938;27;20204;-62
2023/06/09 05:56:09;;;;;;;7.20;3.72;;;;;;;37.83;21.10;100288.56;5130394;27;20221;-64
2023/06/09 05:58:38;;;;;;;8.55;4.90;;;;;;;38.02;21.12;100289.00;5128053;27;20207;-64
2023/06/09 06:01:07;;;;;;;8.45;4.07;;;;;;;38.40;20.37;100295.81;5133158;27;20192;-63
2023/06/09 06:03:36;;;;;;;5.95;3.70;;;;;;;38.70;19.50;100300.22;5134283;27;20211;-64
2023/06/09 06:06:04;;;;;;;7.07;3.88;;;;;;;38.94;19.18;100286.34;5132742;27;20560;-62
2023/06/09 06:08:32;;;;;;;8.10;5.03;;;;;;;39.37;19.83;100297.00;5128941;27;20613;-64
2023/06/09 06:11:00;;;;;;;7.80;4.25;;;;;;;39.93;18.68;100291.44;5137913;27;20202;-64
2023/06/09 06:13:28;;;;;;;8.63;4.40;;;;;;;39.77;18.69;100287.25;5132820;27;20210;-64
2023/06/09 06:15:58;;;;;;;9.13;5.07;;;;;;;40.03;18.73;100291.06;5133613;27;20286;-63
2023/06/09 06:18:28;;;;;;;9.60;3.85;;;;;;;41.00;17.46;100287.81;5130888;27;21967;-62
2023/06/09 06:20:56;;;;;;;8.93;3.67;;;;;;;41.28;16.98;100284.00;5127593;27;20199;-63
2023/06/09 06:23:24;;;;;;;4.53;3.38;;;;;;;40.97;17.22;100281.97;5129036;27;20207;-63
2023/06/09 06:25:52;;;;;;;7.43;4.00;;;;;;;40.58;17.64;100286.41;5130467;27;20234;-63
2023/06/09 06:28:20;;;;;;;7.00;3.30;;;;;;;40.55;17.94;100286.78;5129157;27;20288;-60
2023/06/09 06:30:49;;;;;;;5.22;3.50;;;;;;;40.96;17.60;100277.63;5130084;27;20230;-64
2023/06/09 06:33:17;;;;;;;4.57;3.05;;;;;;;41.55;16.96;100286.66;5134516;27;20557;-65
2023/06/09 06:35:47;;;;;;;3.58;3.08;;;;;;;41.89;16.10;100282.75;5131571;27;20199;-64
2023/06/09 06:38:15;;;;;;;6.22;3.10;;;;;;;41.44;16.09;100288.13;5147089;27;20198;-65
2023/06/09 06:40:44;;;;;;;6.55;2.97;;;;;;;40.69;16.80;100280.38;5132336;27;20241;-64
2023/06/09 06:43:12;;;;;;;3.03;2.72;;;;;;;40.23;17.38;100280.31;5129919;27;20230;-62
2023/06/09 06:45:40;;;;;;;3.45;2.70;;;;;;;39.96;17.33;100271.31;5131340;27;20248;-65
2023/06/09 06:48:08;;;;;;;4.38;2.65;;;;;;;39.36;17.85;100280.00;5118972;27;20295;-63
2023/06/09 06:50:37;;;;;;;4.57;3.15;;;;;;;39.36;18.43;100273.75;5125555;27;20202;-64
2023/06/09 06:53:07;;;;;;;5.35;2.17;;;;;;;39.26;17.61;100279.53;5122344;27;20350;-66
2023/06/09 06:55:37;;;;;;;3.00;2.30;;;;;;;39.49;17.37;100275.69;5127324;27;20717;-69
2023/06/09 06:58:05;;;;;;;3.35;2.20;;;;;;;39.66;16.92;100278.84;5128132;27;20289;-68
2023/06/09 07:00:35;;;;;;;4.13;2.42;;;;;;;39.62;17.37;100283.81;5125051;27;20281;-68
2023/06/09 07:03:03;;;;;;;2.83;2.40;;;;;;;40.02;17.52;100278.56;5127271;27;20307;-66
2023/06/09 07:05:31;;;;;;;3.20;2.10;;;;;;;40.39;17.19;100279.06;5134138;27;20194;-64
2023/06/09 07:07:59;;;;;;;7.57;2.50;;;;;;;40.60;16.19;100275.38;5128414;27;20203;-64
2023/06/09 07:10:29;;;;;;;2.13;2.03;;;;;;;40.24;17.13;100282.78;5130755;27;20199;-66
2023/06/09 07:13:03;;;;;;;5.65;2.50;;;;;;;40.51;16.74;100274.72;5129478;27;20222;-66
2023/06/09 07:15:30;;;;;;;4.38;2.15;;;;;;;41.07;16.13;100279.69;5121437;27;20199;-64
2023/06/09 07:17:58;;;;;;;2.28;2.00;;;;;;;40.96;16.18;100274.91;5125374;27;20207;-64
2023/06/09 07:20:26;;;;;;;4.47;2.00;;;;;;;40.78;16.50;100286.38;5121485;27;20267;-64
2023/06/09 07:22:55;;;;;;;2.30;2.10;;;;;;;40.78;16.34;100284.50;5127895;27;20721;-64
2023/06/09 07:25:23;;;;;;;3.50;2.17;;;;;;;40.54;16.46;100288.66;5128379;27;20771;-67
2023/06/09 07:27:52;;;;;;;4.25;2.30;;;;;;;39.71;17.30;100281.81;5131376;27;20198;-65
2023/06/09 07:30:21;;;;;;;3.45;2.38;;;;;;;39.21;17.59;100278.41;5130583;27;20213;-65
2023/06/09 07:32:49;;;;;;;2.55;2.20;;;;;;;39.03;18.81;100278.94;5131704;27;20206;-65
2023/06/09 07:35:19;;;;;;;2.50;2.28;;;;;;;39.03;18.03;100282.47;5131774;27;20213;-63
2023/06/09 07:37:48;;;;;;;5.53;2.70;;;;;;;39.04;18.94;100275.22;5126233;27;20287;-68
2023/06/09 07:40:16;;;;;;;4.45;2.88;;;;;;;38.80;18.12;100266.56;5130987;27;20200;-71
2023/06/09 07:42:48;;;;;;;2.78;2.58;;;;;;;38.83;18.70;100273.41;5132887;27;20214;-69
2023/06/09 07:45:19;;;;;;;3.17;2.63;;;;;;;38.49;18.41;100272.31;5126736;27;20200;-69
2023/06/09 07:47:47;;;;;;;2.72;2.53;;;;;;;37.29;19.69;100278.13;5128410;27;20627;-68
2023/06/09 07:50:17;;;;;;;3.67;2.95;;;;;;;35.95;21.97;100276.88;5128154;27;20205;-69
2023/06/09 07:52:45;;;;;;;3.28;2.47;;;;;;;34.46;23.33;100278.38;5127616;27;20565;-67
2023/06/09 07:55:14;;;;;;;5.07;2.80;;;;;;;32.99;25.36;100278.66;5133163;27;20199;-69
2023/06/09 07:57:45;;;;;;;3.75;3.03;;;;;;;31.67;27.34;100273.03;5125099;27;20231;-63
2023/06/09 08:00:15;;;;;;;3.40;2.90;;;;;;;30.70;29.15;100281.25;5126198;27;20284;-65
2023/06/09 08:02:45;;;;;;;3.45;3.15;;;;;;;29.98;30.37;100276.31;5123833;27;20335;-64
2023/06/09 08:05:13;;;;;;;5.50;3.40;;;;;;;29.57;31.15;100275.47;5128589;27;20199;-65
2023/06/09 08:07:42;;;;;;;8.73;3.53;;;;;;;29.42;32.18;100271.47;5125230;27;20199;-65
2023/06/09 08:10:10;;;;;;;3.75;3.08;;;;;;;29.22;32.42;100270.56;5128994;27;20558;-64
2023/06/09 08:12:39;;;;;;;3.05;2.75;;;;;;;28.83;32.53;100279.13;5126413;27;20217;-69
2023/06/09 08:15:10;;;;;;;2.92;2.72;;;;;;;28.39;32.97;100277.53;5130396;27;20210;-64
2023/06/09 08:17:39;;;;;;;3.25;2.95;;;;;;;28.06;32.70;100268.69;5128706;27;20203;-66
2023/06/09 08:20:09;;;;;;;3.67;2.90;;;;;;;27.81;33.76;100275.13;5128468;27;20199;-63
2023/06/09 08:22:38;;;;;;;3.17;2.88;;;;;;;27.70;34.40;100270.63;5126455;27;20231;-63
2023/06/09 08:25:07;;;;;;;3.03;2.78;;;;;;;27.67;34.08;100275.34;5128083;27;20238;-64
2023/06/09 08:27:38;;;;;;;6.82;3.15;;;;;;;27.64;33.77;100270.28;5122457;27;21893;-63
2023/06/09 08:30:08;;;;;;;5.45;2.97;;;;;;;27.67;34.00;100273.53;5129270;27;20199;-65
2023/06/09 08:32:39;;;;;;;6.30;3.10;;;;;;;27.77;34.34;100275.50;5128496;27;20202;-64
2023/06/09 08:35:12;;;;;;;3.17;2.85;;;;;;;27.95;34.14;100266.06;5127353;27;20214;-70
2023/06/09 08:37:41;;;;;;;3.80;3.08;;;;;;;28.07;33.95;100273.00;5128371;27;20665;-68
2023/06/09 08:40:10;;;;;;;4.05;2.92;;;;;;;28.23;34.39;100274.41;5126569;27;20283;-65
2023/06/09 08:42:39;;;;;;;3.63;3.30;;;;;;;28.37;34.15;100280.28;5128862;27;20272;-65
2023/06/09 08:45:09;;;;;;;6.05;3.55;;;;;;;28.37;34.02;100267.03;5130049;27;20242;-67
2023/06/09 08:47:39;;;;;;;3.60;3.30;;;;;;;28.59;33.50;100262.59;5122880;27;20244;-68
2023/06/09 08:50:10;;;;;;;4.70;3.53;;;;;;;28.73;33.49;100277.38;5120809;27;20203;-67
2023/06/09 08:52:39;;;;;;;4.15;3.40;;;;;;;28.79;32.55;100275.00;5126888;28;20206;-67
2023/06/09 08:55:08;;;;;;;3.17;2.90;;;;;;;28.70;32.23;100280.28;5125984;27;20608;-68
2023/06/09 08:57:36;;;;;;;6.00;2.60;;;;;;;28.66;31.54;100274.38;5125441;27;20211;-69
2023/06/09 09:00:11;;;;;;;3.30;2.80;;;;;;;28.70;31.45;100275.81;5125070;27;20195;-68
2023/06/09 09:02:39;;;;;;;2.85;2.65;;;;;;;28.69;31.20;100268.00;5126939;28;20223;-67
2023/06/09 09:05:10;;;;;;;4.43;2.45;;;;;;;28.44;30.78;100264.72;5131701;28;20243;-69
2023/06/09 09:07:39;;;;;;;3.38;2.40;;;;;;;28.43;31.46;100273.66;5131315;28;20350;-65
2023/06/09 09:10:08;;;;;;;3.53;2.72;;;;;;;28.37;31.99;100267.03;5130737;27;20273;-66
2023/06/09 09:12:46;;;;;;;3.45;2.80;;;;;;;28.27;32.27;100263.41;5133460;27;20585;-72
2023/06/09 09:15:14;;;;;;;3.50;2.63;;;;;;;28.28;32.31;100261.59;5136627;27;20195;-73
2023/06/09 09:17:42;;;;;;;3.85;2.35;;;;;;;28.34;32.42;100269.91;5125307;27;20611;-72
2023/06/09 09:20:15;;;;;;;3.38;2.78;;;;;;;28.36;31.90;100265.31;5133067;27;20646;-72
2023/06/09 09:22:48;;;;;;;6.05;2.75;;;;;;;28.30;31.98;100267.63;5126759;27;20199;-68
2023/06/09 09:25:26;;;;;;;4.68;2.45;;;;;;;28.22;31.92;100262.97;5129054;27;20239;-66
2023/06/09 09:28:02;;;;;;;4.55;2.42;;;;;;;28.21;31.52;100268.41;5133839;27;20226;-67
2023/06/09 09:30:54;;;;;;;3.47;2.63;;;;;;;28.13;31.14;100264.56;5130913;27;20259;-67
2023/06/09 09:33:27;;;;;;;3.65;2.50;;;;;;;28.17;31.21;100260.69;5129302;27;20629;-66
2023/06/09 09:35:58;;;;;;;3.03;2.45;;;;;;;28.26;30.64;100260.91;5133366;27;20248;-68
2023/06/09 09:38:27;;;;;;;3.03;2.05;;;;;;;28.32;30.11;100255.13;5134719;27;20288;-73
2023/06/09 09:40:57;;;;;;;5.15;2.40;;;;;;;28.42;29.91;100245.44;5128077;27;20209;-72
2023/06/09 09:43:27;;;;;;;3.92;2.40;;;;;;;28.49;29.69;100248.44;5122895;27;20199;-72
2023/06/09 09:45:57;;;;;;;3.75;2.30;;;;;;;28.46;29.72;100246.88;5124395;27;20199;-71
2023/06/09 09:48:25;;;;;;;2.95;2.40;;;;;;;28.60;29.69;100241.25;5127317;27;20196;-71
2023/06/09 09:50:55;;;;;;;4.03;2.20;;;;;;;28.76;29.47;100239.97;5131407;27;20688;-72
2023/06/09 09:53:26;;;;;;;2.50;2.30;;;;;;;28.91;29.22;100251.09;5131867;27;20234;-73
2023/06/09 09:55:55;;;;;;;2.97;2.47;;;;;;;29.00;28.59;100239.72;5130604;27;20195;-70
2023/06/09 09:58:30;;;;;;;2.83;2.08;;;;;;;29.11;28.41;100236.97;5128711;27;20248;-70
2023/06/09 10:01:00;;;;;;;2.65;2.10;;;;;;;29.20;28.37;100235.34;5127744;27;20205;-65
2023/06/09 10:03:29;;;;;;;4.68;2.00;;;;;;;29.31;27.44;100232.59;5129061;27;20293;-64
2023/06/09 10:06:01;;;;;;;2.22;2.03;;;;;;;29.52;27.56;100235.19;5128933;27;20267;-65
2023/06/09 10:08:32;;;;;;;2.92;2.47;;;;;;;29.71;27.39;100226.47;5125006;27;20199;-65
2023/06/09 10:11:00;;;;;;;3.17;2.10;;;;;;;29.82;27.42;100226.34;5124070;27;20195;-64
2023/06/09 10:13:29;;;;;;;2.83;2.08;;;;;;;30.19;26.91;100223.91;5131576;27;20252;-63
2023/06/09 10:15:59;;;;;;;3.05;2.13;;;;;;;30.94;25.62;100224.13;5129427;27;20195;-65
2023/06/09 10:18:27;;;;;;;3.05;2.28;;;;;;;31.66;24.66;100220.72;5127669;27;20207;-65
2023/06/09 10:20:56;;;;;;;5.55;2.90;;;;;;;31.83;24.67;100216.41;5130231;27;20208;-65
2023/06/09 10:23:25;;;;;;;2.50;2.30;;;;;;;31.61;25.12;100207.03;5126645;27;20203;-65
2023/06/09 10:25:54;;;;;;;2.65;2.17;;;;;;;32.24;24.83;100204.34;5128773;27;20271;-64
2023/06/09 10:28:22;;;;;;;3.72;2.30;;;;;;;33.60;23.16;100202.03;5127665;27;20199;-64
2023/06/09 10:30:51;;;;;;;2.50;2.22;;;;;;;33.30;23.17;100200.72;5132473;27;20282;-67
2023/06/09 10:33:26;;;;;;;4.90;2.10;;;;;;;33.61;22.86;100204.53;5131381;27;20306;-65
2023/06/09 10:35:57;;;;;;;3.10;2.00;;;;;;;33.74;22.08;100182.69;5132601;27;20575;-65
2023/06/09 10:38:29;;;;;;;2.17;1.98;;;;;;;32.45;23.70;100206.72;5131105;27;20207;-65
2023/06/09 10:41:09;;;;;;;2.60;2.40;;;;;;;32.30;24.49;100194.06;5132882;27;20204;-66
2023/06/09 10:43:51;;;;;;;3.40;2.40;;;;;;;33.63;22.87;100188.34;5123297;27;20199;-65
2023/06/09 10:46:40;;;;;;;3.60;2.25;;;;;;;33.41;22.72;100184.41;5130246;27;20195;-65
2023/06/09 10:49:09;;;;;;;2.88;2.22;;;;;;;33.33;22.60;100181.72;5129678;27;20203;-65
2023/06/09 10:51:41;;;;;;;4.63;2.05;;;;;;;32.31;23.91;100182.41;5128705;27;20199;-63
2023/06/09 10:54:26;;;;;;;3.13;2.03;;;;;;;32.29;24.58;100173.69;5134148;27;20566;-65
2023/06/09 10:57:00;;;;;;;4.25;2.40;;;;;;;34.05;22.79;100158.84;5126968;27;20649;-65
2023/06/09 11:00:14;;;;;;;2.88;2.35;;;;;;;36.00;19.80;100156.50;5132389;27;20598;-65
2023/06/09 11:02:46;;;;;;;1.90;1.80;;;;;;;36.59;19.10;100149.63;5121910;27;20199;-65
2023/06/09 11:05:15;;;;;;;3.38;1.70;;;;;;;37.19;18.49;100146.75;5128951;27;20226;-65
2023/06/09 11:07:47;;;;;;;2.97;1.90;;;;;;;37.58;18.36;100150.09;5126925;27;20298;-65
2023/06/09 11:10:33;;;;;;;1.63;1.52;;;;;;;38.23;17.22;100138.28;5129174;27;20666;-65
2023/06/09 11:13:18;;;;;;;4.50;2.22;;;;;;;38.18;17.46;100144.25;5132764;27;20249;-65
2023/06/09 11:16:03;;;;;;;2.35;2.08;;;;;;;37.10;18.49;100157.78;5107537;27;20235;-65
2023/06/09 11:18:32;;;;;;;2.90;1.80;;;;;;;36.86;18.05;100146.31;5129237;27;20240;-65
2023/06/09 11:21:19;;;;;;;1.48;1.38;;;;;;;36.86;17.77;100140.94;5126230;27;20195;-65
2023/06/09 11:24:08;;;;;;;1.80;1.70;;;;;;;37.24;17.33;100143.50;5124609;27;20267;-67
2023/06/09 11:26:37;;;;;;;3.03;2.05;;;;;;;37.11;17.61;100137.94;5130192;27;20225;-67
2023/06/09 11:29:21;;;;;;;1.90;1.80;;;;;;;37.15;17.78;100140.06;5131165;27;20291;-66
2023/06/09 11:31:50;;;;;;;2.13;1.77;;;;;;;36.59;18.05;100138.88;5131189;27;20218;-66
2023/06/09 11:34:58;;;;;;;2.38;1.88;;;;;;;35.31;19.49;100139.47;5131814;27;20321;-66
2023/06/09 11:37:27;;;;;;;2.50;1.95;;;;;;;35.59;19.19;100137.19;5130231;27;20573;-66
2023/06/09 11:39:55;;;;;;;2.00;1.80;;;;;;;35.46;19.51;100136.88;5129771;27;20258;-66